»·PEaware :: SWA3371 KSLC-KDEN

SWA3371 :: KSLC-KDEN

FLIGHT INFORMATION

Flight Status: Arrived
Operator:
Southwest Airlines
More flights by this operator :: More flights under this callsign
Pilot: Alec D. (17934)
Aircraft: BOEING 737-700
(B737)
More flights by this aircraft type
Origin: KSLC Salt Lake City Intl
United States
Destination: KDEN Denver Intl
United States
More flights between these airports :: More routes between these airports
Route: RUGGD1 PERTY CHE KAILE2
File this flight plan on PilotEdge
Remarks:
Altitude:
(Current/Filed)
39,000ft
Speed:
(Current/Filed)
450kts
Departed: 01-Oct-18 05:11 PM
Arrived: 01-Oct-18 06:09 PM
Distance/Time
Traveled:
338nm/0:57
Distance/Time
To Go:
Arrived

Flight Plot

Page will automatically refresh every two minutes.

Flight plan parsing failed; only flown route is shown


Map Options




Map Legend


Flown Route
Filed Route
Departure Airport
Arrival Airport
Navaid (VOR, NDB)
Fix

Horizontal Profiles

Position Reports

Time Latitude Longitude Heading Altitude Ground
Speed
01-Oct-18 16:38 40.786831 -111.979423 153 4237ft 0kts
01-Oct-18 16:39 40.786831 -111.979423 153 4237ft 0kts
01-Oct-18 16:40 40.786831 -111.979423 153 4237ft 0kts
01-Oct-18 16:41 40.786831 -111.979423 153 4237ft 0kts
01-Oct-18 16:42 40.786831 -111.979423 153 4237ft 0kts
01-Oct-18 16:43 40.786831 -111.979423 153 4237ft 0kts
01-Oct-18 16:44 40.786831 -111.979423 153 4237ft 0kts
01-Oct-18 16:45 40.786831 -111.979423 153 4237ft 0kts
01-Oct-18 16:46 40.786831 -111.979423 153 4237ft 0kts
01-Oct-18 16:47 40.786831 -111.979423 153 4237ft 0kts
01-Oct-18 16:48 40.786831 -111.979423 153 4237ft 0kts
01-Oct-18 16:49 40.786831 -111.979423 153 4237ft 0kts
01-Oct-18 16:50 40.786831 -111.979423 153 4237ft 0kts
01-Oct-18 16:51 40.786831 -111.979423 153 4237ft 0kts
01-Oct-18 16:52 40.786831 -111.979423 153 4237ft 0kts
01-Oct-18 16:53 40.786831 -111.979423 153 4237ft 0kts
01-Oct-18 16:54 40.786831 -111.979423 153 4237ft 0kts
01-Oct-18 16:55 40.786831 -111.979423 153 4237ft 0kts
01-Oct-18 16:56 40.786831 -111.979423 153 4237ft 0kts
01-Oct-18 16:57 40.786831 -111.979423 153 4237ft 0kts
01-Oct-18 16:58 40.786831 -111.979423 153 4237ft 0kts
01-Oct-18 16:59 40.786831 -111.979423 153 4237ft 0kts
01-Oct-18 17:00 40.786879 -111.979454 153 4237ft 1kts
01-Oct-18 17:01 40.787405 -111.979912 104 4237ft 0kts
01-Oct-18 17:02 40.787405 -111.979912 104 4237ft 0kts
01-Oct-18 17:03 40.787405 -111.979912 104 4237ft 0kts
01-Oct-18 17:04 40.787405 -111.979912 104 4237ft 0kts
01-Oct-18 17:05 40.788038 -111.979829 356 4237ft 7kts
01-Oct-18 17:06 40.788337 -111.979806 5 4237ft 8kts
01-Oct-18 17:07 40.790323 -111.977173 20 4237ft 10kts
01-Oct-18 17:08 40.796745 -111.977796 354 4237ft 26kts
01-Oct-18 17:09 40.801945 -111.978420 355 4237ft 23kts
01-Oct-18 17:10 40.807302 -111.978521 72 4237ft 0kts
01-Oct-18 17:11 40.807303 -111.978515 72 4237ft 0kts
01-Oct-18 17:12 40.806769 -111.976784 174 4237ft 8kts
01-Oct-18 17:13 40.775578 -111.973738 181 5215ft 184kts
01-Oct-18 17:14 40.745040 -112.019108 264 7275ft 260kts
01-Oct-18 17:15 40.784442 -112.120070 304 10397ft 265kts
01-Oct-18 17:16 40.825289 -112.183590 306 13713ft 277kts
01-Oct-18 17:17 40.905759 -112.192997 32 16403ft 369kts
01-Oct-18 17:18 40.970085 -112.075921 53 19188ft 413kts
01-Oct-18 17:19 41.038684 -111.948671 53 22265ft 435kts
01-Oct-18 17:20 41.107321 -111.812661 69 24749ft 457kts
01-Oct-18 17:21 41.073790 -111.660814 142 26580ft 448kts
01-Oct-18 17:22 40.990906 -111.531892 135 28528ft 469kts
01-Oct-18 17:23 40.910538 -111.393094 119 30059ft 495kts
01-Oct-18 17:24 40.887220 -111.209818 102 31480ft 513kts
01-Oct-18 17:25 40.864631 -111.022068 101 32706ft 523kts
01-Oct-18 17:26 40.841692 -110.832895 102 34165ft 521kts
01-Oct-18 17:27 40.818452 -110.643865 103 35434ft 520kts
01-Oct-18 17:28 40.795017 -110.455927 103 36548ft 518kts
01-Oct-18 17:29 40.771314 -110.268371 103 37547ft 517kts
01-Oct-18 17:30 40.747416 -110.081793 103 38393ft 516kts
01-Oct-18 17:31 40.732277 -109.893278 98 39106ft 519kts
01-Oct-18 17:32 40.718647 -109.703212 98 39155ft 518kts
01-Oct-18 17:33 40.704822 -109.513987 98 39148ft 519kts
01-Oct-18 17:34 40.690677 -109.324650 98 39150ft 520kts
01-Oct-18 17:35 40.676163 -109.134721 99 39158ft 521kts
01-Oct-18 17:36 40.661365 -108.945077 99 39160ft 521kts
01-Oct-18 17:37 40.646198 -108.754768 99 39164ft 521kts
01-Oct-18 17:38 40.630740 -108.564977 99 39195ft 522kts
01-Oct-18 17:39 40.614997 -108.375480 99 39201ft 522kts
01-Oct-18 17:40 40.598872 -108.185236 99 39207ft 522kts
01-Oct-18 17:41 40.582499 -107.995821 99 39180ft 521kts
01-Oct-18 17:42 40.565790 -107.806194 99 39202ft 523kts
01-Oct-18 17:43 40.548691 -107.615785 99 39192ft 523kts
01-Oct-18 17:44 40.531337 -107.426085 99 39192ft 524kts
01-Oct-18 17:45 40.516192 -107.234863 95 39229ft 526kts
01-Oct-18 17:46 40.506264 -107.043241 96 39231ft 527kts
01-Oct-18 17:47 40.495764 -106.851370 95 37395ft 527kts
01-Oct-18 17:48 40.484786 -106.656983 95 34243ft 538kts
01-Oct-18 17:49 40.473371 -106.460441 94 31077ft 540kts
01-Oct-18 17:50 40.461656 -106.265086 94 27943ft 523kts
01-Oct-18 17:51 40.450353 -106.081678 94 24415ft 489kts
01-Oct-18 17:52 40.432266 -105.911129 104 20789ft 456kts
01-Oct-18 17:53 40.407225 -105.753245 104 17295ft 426kts
01-Oct-18 17:54 40.385071 -105.613736 104 17074ft 354kts
01-Oct-18 17:55 40.365146 -105.489208 104 17054ft 348kts
01-Oct-18 17:56 40.346905 -105.364372 101 16300ft 345kts
01-Oct-18 17:57 40.330460 -105.244393 102 14701ft 330kts
01-Oct-18 17:58 40.314298 -105.127651 101 13130ft 319kts
01-Oct-18 17:59 40.299684 -105.022709 102 12965ft 272kts
01-Oct-18 18:00 40.286008 -104.925575 102 12987ft 271kts
01-Oct-18 18:01 40.272031 -104.828061 101 11773ft 273kts
01-Oct-18 18:02 40.252138 -104.735665 117 10723ft 250kts
01-Oct-18 18:03 40.207239 -104.684047 167 9959ft 199kts
01-Oct-18 18:04 40.154883 -104.683587 182 9957ft 171kts
01-Oct-18 18:05 40.107510 -104.684497 180 9482ft 169kts
01-Oct-18 18:06 40.060716 -104.684936 179 8602ft 166kts
01-Oct-18 18:07 40.014723 -104.685486 179 7725ft 160kts
01-Oct-18 18:08 39.971357 -104.686005 177 6895ft 155kts
01-Oct-18 18:09 39.927233 -104.686331 180 6032ft 159kts
01-Oct-18 18:10 39.886002 -104.686944 181 5442ft 87kts
01-Oct-18 18:11 39.876880 -104.686083 149 5442ft 2kts
01-Oct-18 18:12 39.876867 -104.686074 149 5441ft 0kts
01-Oct-18 18:13 39.873274 -104.684966 180 5441ft 18kts
01-Oct-18 18:14 39.866845 -104.685038 180 5441ft 24kts
01-Oct-18 18:15 39.864033 -104.682117 168 5441ft 8kts
01-Oct-18 18:16 39.861347 -104.678842 89 5441ft 23kts
01-Oct-18 18:17 39.862447 -104.676231 359 5441ft 0kts
01-Oct-18 18:18 39.862447 -104.676231 359 5441ft 0kts
01-Oct-18 18:19 39.862447 -104.676231 359 5441ft 0kts
01-Oct-18 18:20 39.862447 -104.676231 359 5441ft 0kts
01-Oct-18 18:21 39.862447 -104.676231 359 5441ft 0kts

Navigation Log

Ident Type
Flight plan parsing failed, navigation log unavailable